Time;durP1;ratioP1;P1;durP2;ratioP2;P2;SDS_P1;SDS_P2;PMS_P1;PMS_P2;Temp;Humidity;BMP_temperature;BMP_pressure;BME280_temperature;BME280_humidity;BME280_pressure;Samples;Min_cycle;Max_cycle;Signal;HPM_P1;HPM_P2
2023/07/06 00:00:47;;;;;;;;;7.75;6.75;;;;;-148.88;100.00;62358.56;5076574;28;8905;-80
2023/07/06 00:03:14;;;;;;;;;7.25;7.00;;;;;-148.88;100.00;62358.56;5095431;28;8795;-80
2023/07/06 00:05:46;;;;;;;;;7.50;7.25;;;;;-148.88;100.00;62358.56;5079037;28;8823;-80
2023/07/06 00:08:18;;;;;;;;;6.00;6.00;;;;;-148.88;100.00;62358.56;5083230;28;8939;-80
2023/07/06 00:10:52;;;;;;;;;7.50;7.50;;;;;-148.88;100.00;62358.56;5099238;28;8791;-80
2023/07/06 00:13:20;;;;;;;;;7.25;6.75;;;;;-148.88;100.00;62358.56;5098346;28;8790;-80
2023/07/06 00:15:48;;;;;;;;;8.25;8.00;;;;;-148.88;100.00;62358.56;5101856;28;8945;-81
2023/07/06 00:18:15;;;;;;;;;7.75;5.75;;;;;-148.88;100.00;62358.56;5097995;28;8839;-80
2023/07/06 00:20:40;;;;;;;;;7.00;6.00;;;;;-148.88;100.00;62358.56;5099321;28;8829;-80
2023/07/06 00:23:08;;;;;;;;;6.25;6.25;;;;;-148.88;100.00;62358.56;5083345;28;9593;-81
2023/07/06 00:25:34;;;;;;;;;6.00;6.00;;;;;-148.88;100.00;62358.56;5099350;28;8799;-80
2023/07/06 00:28:03;;;;;;;;;10.25;8.00;;;;;-148.88;100.00;62358.56;5080521;28;8818;-81
2023/07/06 00:33:13;;;;;;;;;7.50;7.50;;;;;-148.88;100.00;62358.56;5092330;28;9744;-80
2023/07/06 00:35:40;;;;;;;;;6.50;6.00;;;;;-148.88;100.00;62358.56;5106517;27;9209;-80
2023/07/06 00:38:10;;;;;;;;;6.00;6.00;;;;;-148.88;100.00;62358.56;5071632;28;8928;-80
2023/07/06 00:40:39;;;;;;;;;7.00;6.25;;;;;-148.88;100.00;62358.56;5098007;28;8825;-81
2023/07/06 00:43:06;;;;;;;;;9.00;8.00;;;;;-148.88;100.00;62358.56;5098011;28;8799;-81
2023/07/06 00:45:32;;;;;;;;;7.00;6.75;;;;;-148.88;100.00;62358.56;5080023;28;8789;-80
2023/07/06 00:47:59;;;;;;;;;7.00;6.25;;;;;-148.88;100.00;62358.56;5096653;28;8819;-80
2023/07/06 00:50:28;;;;;;;;;8.00;7.00;;;;;-148.88;100.00;62358.56;5108744;27;8830;-80
2023/07/06 00:52:59;;;;;;;;;9.00;8.00;;;;;-148.88;100.00;62358.56;5077944;28;8834;-80
2023/07/06 00:55:29;;;;;;;;;8.75;7.25;;;;;-148.88;100.00;62358.56;5079064;28;8807;-80
2023/07/06 00:58:09;;;;;;;;;7.00;7.00;;;;;-148.88;100.00;62358.56;5079676;28;8913;-81
2023/07/06 01:00:37;;;;;;;;;8.75;7.75;;;;;-148.88;100.00;62358.56;5097702;28;9786;-81
2023/07/06 01:03:03;;;;;;;;;7.25;6.50;;;;;-148.88;100.00;62358.56;5108269;28;8899;-81
2023/07/06 01:05:30;;;;;;;;;7.00;6.75;;;;;-148.88;100.00;62358.56;5081441;28;8830;-81
2023/07/06 01:08:03;;;;;;;;;4.75;4.50;;;;;-148.88;100.00;62358.56;5098150;28;8778;-81
2023/07/06 01:10:31;;;;;;;;;6.00;5.00;;;;;-148.88;100.00;62358.56;5111497;28;8814;-81
2023/07/06 01:12:57;;;;;;;;;6.50;5.00;;;;;-148.88;100.00;62358.56;5093469;28;8775;-81
2023/07/06 01:15:25;;;;;;;;;5.75;5.50;;;;;-148.88;100.00;62358.56;5099932;28;8825;-80
2023/07/06 01:18:00;;;;;;;;;7.25;6.75;;;;;-148.88;100.00;62358.56;5078910;28;8838;-81
2023/07/06 01:20:44;;;;;;;;;7.50;7.00;;;;;-148.88;100.00;62358.56;5073452;28;9676;-80
2023/07/06 01:23:35;;;;;;;;;8.25;8.00;;;;;-148.88;100.00;62358.56;5095528;28;8791;-81
2023/07/06 01:26:18;;;;;;;;;7.25;7.25;;;;;-148.88;100.00;62358.56;5069477;28;8830;-80
2023/07/06 01:28:59;;;;;;;;;6.50;5.75;;;;;-148.88;100.00;62358.56;5087757;28;9411;-81
2023/07/06 01:32:02;;;;;;;;;6.75;6.00;;;;;-148.88;100.00;62358.56;5105214;28;8799;-81
2023/07/06 01:34:53;;;;;;;;;7.50;6.50;;;;;-148.88;100.00;62358.56;5044242;28;8825;-80
2023/07/06 01:37:30;;;;;;;;;7.00;7.00;;;;;-148.88;100.00;62358.56;5078317;28;8833;-80
2023/07/06 01:39:59;;;;;;;;;6.00;6.00;;;;;-148.88;100.00;62358.56;5078903;28;8945;-81
2023/07/06 01:42:31;;;;;;;;;9.25;6.50;;;;;-148.88;100.00;62358.56;5097271;28;8798;-81
2023/07/06 01:45:18;;;;;;;;;7.00;6.75;;;;;-148.88;100.00;62358.56;5102312;28;8866;-80
2023/07/06 01:47:51;;;;;;;;;6.00;6.00;;;;;-148.88;100.00;62358.56;5097671;28;8775;-81
2023/07/06 01:50:19;;;;;;;;;5.75;5.75;;;;;-148.88;100.00;62358.56;5103929;28;8845;-80
2023/07/06 01:53:07;;;;;;;;;8.00;6.00;;;;;-148.88;100.00;62358.56;5093685;28;8799;-81
2023/07/06 01:55:44;;;;;;;;;7.25;7.00;;;;;-148.88;100.00;62358.56;5100156;28;8803;-80
2023/07/06 01:58:23;;;;;;;;;8.00;6.00;;;;;-148.88;100.00;62358.56;5079016;28;8775;-80
2023/07/06 02:00:55;;;;;;;;;8.00;6.25;;;;;-148.88;100.00;62358.56;5076266;28;8860;-80
2023/07/06 02:03:24;;;;;;;;;8.00;8.00;;;;;-148.88;100.00;62358.56;5078717;28;8821;-81
2023/07/06 02:05:51;;;;;;;;;12.25;11.25;;;;;-148.88;100.00;62358.56;5097113;28;8905;-80
2023/07/06 02:08:18;;;;;;;;;8.50;8.25;;;;;-148.88;100.00;62358.56;5106366;28;8775;-80
2023/07/06 02:10:43;;;;;;;;;6.00;6.00;;;;;-148.88;100.00;62358.56;5097963;28;8788;-80
2023/07/06 02:13:09;;;;;;;;;8.25;7.75;;;;;-148.88;100.00;62358.56;5102671;28;8856;-80
2023/07/06 02:15:34;;;;;;;;;8.00;8.00;;;;;-148.88;100.00;62358.56;5079907;28;9205;-81
2023/07/06 02:18:01;;;;;;;;;9.00;8.00;;;;;-148.88;100.00;62358.56;5094187;28;8791;-81
2023/07/06 02:20:27;;;;;;;;;7.50;7.00;;;;;-148.88;100.00;62358.56;5094884;28;10840;-80
2023/07/06 02:22:52;;;;;;;;;14.25;11.50;;;;;-148.88;100.00;62358.56;5097819;28;8787;-80
2023/07/06 02:25:18;;;;;;;;;11.00;9.00;;;;;-148.88;100.00;62358.56;5077504;28;8889;-80
2023/07/06 02:27:43;;;;;;;;;8.25;6.75;;;;;-148.88;100.00;62358.56;5073539;28;8799;-80
2023/07/06 02:30:08;;;;;;;;;6.50;6.50;;;;;-148.88;100.00;62358.56;5076558;28;8866;-80
2023/07/06 02:32:35;;;;;;;;;7.25;6.75;;;;;-148.88;100.00;62358.56;5094835;28;8826;-81
2023/07/06 02:35:02;;;;;;;;;10.00;7.00;;;;;-148.88;100.00;62358.56;5112525;28;11453;-81
2023/07/06 02:37:28;;;;;;;;;6.00;6.00;;;;;-148.88;100.00;62358.56;5095135;28;8956;-79
2023/07/06 02:39:53;;;;;;;;;7.25;6.50;;;;;-148.88;100.00;62358.56;5086904;28;8755;-81
2023/07/06 02:42:19;;;;;;;;;9.25;8.00;;;;;-148.88;100.00;62358.56;5094229;28;8873;-80
2023/07/06 02:44:44;;;;;;;;;7.50;6.50;;;;;-148.88;100.00;62358.56;5094994;28;8865;-80
2023/07/06 02:47:10;;;;;;;;;8.25;7.00;;;;;-148.88;100.00;62358.56;5077955;28;8803;-80
2023/07/06 02:49:36;;;;;;;;;10.50;8.00;;;;;-148.88;100.00;62358.56;5081364;28;8822;-81
2023/07/06 02:52:02;;;;;;;;;8.25;7.25;;;;;-148.88;100.00;62358.56;5094953;28;8832;-81
2023/07/06 02:54:27;;;;;;;;;7.00;7.00;;;;;-148.88;100.00;62358.56;5076057;28;8807;-80
2023/07/06 02:56:52;;;;;;;;;7.00;6.50;;;;;-148.88;100.00;62358.56;5096476;28;8848;-80
2023/07/06 02:59:18;;;;;;;;;7.00;7.00;;;;;-148.88;100.00;62358.56;5095288;28;8846;-81
2023/07/06 03:01:45;;;;;;;;;7.25;7.25;;;;;-148.88;100.00;62358.56;5094989;28;8795;-81
2023/07/06 03:04:10;;;;;;;;;7.00;7.00;;;;;-148.88;100.00;62358.56;5076872;28;8821;-80
2023/07/06 03:06:37;;;;;;;;;6.50;6.25;;;;;-148.88;100.00;62358.56;5103542;27;8831;-80
2023/07/06 03:09:03;;;;;;;;;7.00;6.00;;;;;-148.88;100.00;62358.56;5095887;28;8790;-81
2023/07/06 03:11:30;;;;;;;;;9.00;7.75;;;;;-148.88;100.00;62358.56;5075509;28;8819;-80
2023/07/06 03:13:56;;;;;;;;;7.00;7.00;;;;;-148.88;100.00;62358.56;5098283;28;8830;-80
2023/07/06 03:16:21;;;;;;;;;8.50;7.75;;;;;-148.88;100.00;62358.56;5075443;28;8831;-80
2023/07/06 03:18:47;;;;;;;;;4.25;4.00;;;;;-148.88;100.00;62358.56;5094885;28;8815;-80
2023/07/06 03:21:12;;;;;;;;;10.25;9.00;;;;;-148.88;100.00;62358.56;5094046;28;8783;-81
2023/07/06 03:23:37;;;;;;;;;12.25;10.75;;;;;-148.88;100.00;62358.56;5094942;28;9542;-81
2023/07/06 03:26:03;;;;;;;;;9.00;8.00;;;;;-148.88;100.00;62358.56;5099688;28;8850;-80
2023/07/06 03:28:29;;;;;;;;;9.75;9.50;;;;;-148.88;100.00;62358.56;5078307;28;8807;-80
2023/07/06 03:30:58;;;;;;;;;12.75;11.50;;;;;-148.88;100.00;62358.56;5093502;28;8783;-80
2023/07/06 03:33:24;;;;;;;;;12.25;9.25;;;;;-148.88;100.00;62358.56;5076666;28;8830;-80
2023/07/06 03:35:54;;;;;;;;;15.25;12.50;;;;;-148.88;100.00;62358.56;5109795;27;8817;-80
2023/07/06 03:38:21;;;;;;;;;17.00;15.00;;;;;-148.88;100.00;62358.56;5094274;28;8824;-80
2023/07/06 03:40:50;;;;;;;;;19.25;16.25;;;;;-148.88;100.00;62358.56;5080114;28;8806;-80
2023/07/06 03:43:16;;;;;;;;;14.25;12.25;;;;;-148.88;100.00;62358.56;5096389;28;8795;-80
2023/07/06 03:45:46;;;;;;;;;12.50;10.25;;;;;-148.88;100.00;62358.56;5094662;28;8794;-80
2023/07/06 03:48:12;;;;;;;;;13.25;10.00;;;;;-148.88;100.00;62358.56;5080420;28;8842;-80
2023/07/06 03:50:38;;;;;;;;;13.50;12.25;;;;;-148.88;100.00;62358.56;5094320;28;8802;-80
2023/07/06 03:53:03;;;;;;;;;15.50;14.00;;;;;-148.88;100.00;62358.56;5098337;28;8830;-80
2023/07/06 03:55:29;;;;;;;;;12.75;11.00;;;;;-148.88;100.00;62358.56;5097898;28;8827;-80
2023/07/06 03:57:56;;;;;;;;;13.00;10.75;;;;;-148.88;100.00;62358.56;5097037;28;8830;-80
2023/07/06 04:00:23;;;;;;;;;12.50;10.75;;;;;-148.88;100.00;62358.56;5097781;28;8782;-80
2023/07/06 04:02:51;;;;;;;;;8.50;8.00;;;;;-148.88;100.00;62358.56;5079757;28;8823;-80
2023/07/06 04:05:22;;;;;;;;;10.50;9.50;;;;;-148.88;100.00;62358.56;5078589;28;8818;-80
2023/07/06 04:07:52;;;;;;;;;13.75;12.75;;;;;-148.88;100.00;62358.56;5101305;28;8786;-80
2023/07/06 04:10:19;;;;;;;;;11.00;10.00;;;;;-148.88;100.00;62358.56;5098783;28;8858;-80
2023/07/06 04:12:44;;;;;;;;;15.00;11.75;;;;;-148.88;100.00;62358.56;5105794;28;8806;-80
2023/07/06 04:15:10;;;;;;;;;14.50;12.50;;;;;-148.88;100.00;62358.56;5077858;28;8842;-80
2023/07/06 04:17:36;;;;;;;;;14.50;12.50;;;;;-148.88;100.00;62358.56;5096823;28;8913;-81
2023/07/06 04:20:10;;;;;;;;;11.25;11.00;;;;;-148.88;100.00;62358.56;5111871;28;8918;-80
2023/07/06 04:22:36;;;;;;;;;10.25;9.50;;;;;-148.88;100.00;62358.56;5089835;28;9741;-80
2023/07/06 04:25:04;;;;;;;;;9.75;8.50;;;;;-148.88;100.00;62358.56;5098389;28;8865;-80
2023/07/06 04:27:30;;;;;;;;;8.75;8.00;;;;;-148.88;100.00;62358.56;5098781;28;8768;-80
2023/07/06 04:29:55;;;;;;;;;9.00;7.75;;;;;-148.88;100.00;62358.56;5098452;28;8880;-80
2023/07/06 04:32:23;;;;;;;;;6.00;6.00;;;;;-148.88;100.00;62358.56;5095715;28;8786;-80
2023/07/06 04:34:49;;;;;;;;;8.75;8.75;;;;;-148.88;100.00;62358.56;5096318;28;8830;-80
2023/07/06 04:37:14;;;;;;;;;9.50;9.00;;;;;-148.88;100.00;62358.56;5100837;28;8803;-80
2023/07/06 04:39:39;;;;;;;;;11.00;10.25;;;;;-148.88;100.00;62358.56;5112305;28;8819;-79
2023/07/06 04:42:05;;;;;;;;;9.75;8.50;;;;;-148.88;100.00;62358.56;5096198;28;8803;-80
2023/07/06 04:44:31;;;;;;;;;9.75;8.25;;;;;-148.88;100.00;62358.56;5095522;28;8841;-80
2023/07/06 04:46:58;;;;;;;;;12.00;10.75;;;;;-148.88;100.00;62358.56;5095874;28;8798;-80
2023/07/06 04:49:24;;;;;;;;;10.50;9.25;;;;;-148.88;100.00;62358.56;5076398;28;8807;-80
2023/07/06 04:51:49;;;;;;;;;10.00;9.50;;;;;-148.88;100.00;62358.56;5079342;28;8830;-80
2023/07/06 04:54:15;;;;;;;;;10.25;9.25;;;;;-148.88;100.00;62358.56;5096825;28;8787;-79
2023/07/06 04:56:41;;;;;;;;;9.00;8.00;;;;;-148.88;100.00;62358.56;5096945;28;8888;-80
2023/07/06 04:59:06;;;;;;;;;6.00;6.00;;;;;-148.88;100.00;62358.56;5097214;28;8816;-80
2023/07/06 05:01:31;;;;;;;;;12.25;11.00;;;;;-148.88;100.00;62358.56;5106505;28;8814;-80
2023/07/06 05:03:57;;;;;;;;;11.50;10.75;;;;;-148.88;100.00;62358.56;5095862;28;8803;-80
2023/07/06 05:06:24;;;;;;;;;9.50;9.00;;;;;-148.88;100.00;62358.56;5101013;28;8864;-80
2023/07/06 05:08:50;;;;;;;;;12.25;10.75;;;;;-148.88;100.00;62358.56;5096432;28;8783;-80
2023/07/06 05:11:15;;;;;;;;;11.50;11.50;;;;;-148.88;100.00;62358.56;5083922;28;8931;-80
2023/07/06 05:13:41;;;;;;;;;11.00;10.75;;;;;-148.88;100.00;62358.56;5081918;28;8923;-80
2023/07/06 05:16:06;;;;;;;;;14.25;13.25;;;;;-148.88;100.00;62358.56;5099746;28;8869;-80
2023/07/06 05:18:32;;;;;;;;;13.00;12.50;;;;;-148.88;100.00;62358.56;5078607;28;8880;-79
2023/07/06 05:20:57;;;;;;;;;13.50;12.50;;;;;-148.88;100.00;62358.56;5096544;28;8835;-79
2023/07/06 05:23:28;;;;;;;;;12.75;12.00;;;;;-148.88;100.00;62358.56;5099719;28;8787;-80
2023/07/06 05:25:56;;;;;;;;;12.00;11.50;;;;;-148.88;100.00;62358.56;5077708;28;9672;-79
2023/07/06 05:28:22;;;;;;;;;11.00;11.00;;;;;-148.88;100.00;62358.56;5096558;28;8810;-79
2023/07/06 05:30:48;;;;;;;;;13.75;12.75;;;;;-148.88;100.00;62358.56;5094338;28;8777;-80
2023/07/06 05:33:14;;;;;;;;;11.50;10.25;;;;;-148.88;100.00;62358.56;5099180;28;9494;-79
2023/07/06 05:35:40;;;;;;;;;11.25;10.00;;;;;-148.88;100.00;62358.56;5099166;28;8835;-79
2023/07/06 05:38:10;;;;;;;;;13.00;12.75;;;;;-148.88;100.00;62358.56;5100315;28;8803;-80
2023/07/06 05:40:38;;;;;;;;;12.25;11.00;;;;;-148.88;100.00;62358.56;5075991;28;10046;-79
2023/07/06 05:43:03;;;;;;;;;12.75;12.00;;;;;-148.88;100.00;62358.56;5111334;28;8832;-79
2023/07/06 05:45:29;;;;;;;;;13.50;11.00;;;;;-148.88;100.00;62358.56;5097114;28;8830;-79
2023/07/06 05:47:54;;;;;;;;;14.00;10.75;;;;;-148.88;100.00;62358.56;5096359;28;8794;-79
2023/07/06 05:50:19;;;;;;;;;11.75;9.25;;;;;-148.88;100.00;62358.56;5094465;28;8835;-79
2023/07/06 05:52:46;;;;;;;;;10.50;9.75;;;;;-148.88;100.00;62358.56;5094286;28;8777;-79
2023/07/06 05:55:12;;;;;;;;;9.50;8.00;;;;;-148.88;100.00;62358.56;5098273;28;8803;-79
2023/07/06 05:57:37;;;;;;;;;9.75;8.00;;;;;-148.88;100.00;62358.56;5110007;28;8817;-78
2023/07/06 06:00:09;;;;;;;;;12.50;12.00;;;;;-148.88;100.00;62358.56;5076555;28;8839;-79
2023/07/06 06:02:35;;;;;;;;;11.50;8.75;;;;;-148.88;100.00;62358.56;5090391;28;8805;-79
2023/07/06 06:05:01;;;;;;;;;13.00;11.50;;;;;-148.88;100.00;62358.56;5078507;28;9725;-79
2023/07/06 06:07:26;;;;;;;;;11.25;9.00;;;;;-148.88;100.00;62358.56;5098413;28;9454;-79
2023/07/06 06:09:52;;;;;;;;;11.00;9.00;;;;;-148.88;100.00;62358.56;5101100;28;8921;-76
2023/07/06 06:12:18;;;;;;;;;11.00;10.00;;;;;-148.88;100.00;62358.56;5078447;28;8819;-75
2023/07/06 06:14:48;;;;;;;;;13.25;9.50;;;;;-148.88;100.00;62358.56;5096659;28;8825;-74
2023/07/06 06:17:15;;;;;;;;;9.75;9.50;;;;;-148.88;100.00;62358.56;5080405;28;8806;-74
2023/07/06 06:19:42;;;;;;;;;11.00;11.00;;;;;-148.88;100.00;62358.56;5094855;28;8783;-75
2023/07/06 06:22:09;;;;;;;;;9.00;8.00;;;;;-148.88;100.00;62358.56;5073459;28;8791;-73
2023/07/06 06:24:34;;;;;;;;;10.50;7.75;;;;;-148.88;100.00;62358.56;5091028;28;9751;-72
2023/07/06 06:27:00;;;;;;;;;6.00;6.00;;;;;-148.88;100.00;62358.56;5093288;28;8835;-73
2023/07/06 06:29:27;;;;;;;;;6.00;6.00;;;;;-148.88;100.00;62358.56;5082417;28;8799;-69
2023/07/06 06:31:52;;;;;;;;;8.75;6.25;;;;;-148.88;100.00;62358.56;5093437;28;8786;-71
2023/07/06 06:34:18;;;;;;;;;8.00;5.75;;;;;-148.88;100.00;62358.56;5092421;28;8810;-73
2023/07/06 06:36:43;;;;;;;;;8.00;7.00;;;;;-148.88;100.00;62358.56;5088763;28;8845;-70
2023/07/06 06:39:09;;;;;;;;;9.25;8.50;;;;;-148.88;100.00;62358.56;5090857;28;8873;-70
2023/07/06 06:41:38;;;;;;;;;9.50;8.00;;;;;-148.88;100.00;62358.56;5094077;28;8909;-72
2023/07/06 06:44:04;;;;;;;;;10.00;10.00;;;;;-148.88;100.00;62358.56;5095839;28;8790;-72
2023/07/06 06:46:30;;;;;;;;;9.00;8.50;;;;;-148.88;100.00;62358.56;5089678;28;8929;-75
2023/07/06 06:48:55;;;;;;;;;10.75;10.25;;;;;-148.88;100.00;62358.56;5093906;28;8803;-72
2023/07/06 06:51:20;;;;;;;;;10.50;10.00;;;;;-148.88;100.00;62358.56;5095038;28;8799;-71
2023/07/06 06:53:46;;;;;;;;;7.50;6.00;;;;;-148.88;100.00;62358.56;5100865;28;8792;-73
2023/07/06 06:56:12;;;;;;;;;6.00;5.25;;;;;-148.88;100.00;62358.56;5095423;28;8875;-71
2023/07/06 06:58:38;;;;;;;;;6.25;6.25;;;;;-148.88;100.00;62358.56;5097943;28;8787;-73
2023/07/06 07:01:06;;;;;;;;;5.00;4.00;;;;;-148.88;100.00;62358.56;5091572;28;8791;-71
2023/07/06 07:03:34;;;;;;;;;6.50;5.50;;;;;-148.88;100.00;62358.56;5096017;28;8801;-72
2023/07/06 07:06:01;;;;;;;;;2.00;2.00;;;;;-148.88;100.00;62358.56;5098435;28;8837;-72
2023/07/06 07:08:27;;;;;;;;;7.50;5.25;;;;;-148.88;100.00;62358.56;5095195;28;8739;-72
2023/07/06 07:10:57;;;;;;;;;5.00;4.25;;;;;-148.88;100.00;62358.56;5094919;28;8826;-72
2023/07/06 07:13:24;;;;;;;;;5.00;4.00;;;;;-148.88;100.00;62358.56;5094856;28;8825;-73
2023/07/06 07:15:49;;;;;;;;;6.75;5.25;;;;;-148.88;100.00;62358.56;5098800;28;8735;-79
2023/07/06 07:18:15;;;;;;;;;5.00;4.00;;;;;-148.88;100.00;62358.56;5094757;28;8780;-72
2023/07/06 07:20:43;;;;;;;;;6.00;5.00;;;;;-148.88;100.00;62358.56;5075521;28;8798;-73
2023/07/06 07:23:09;;;;;;;;;6.75;4.50;;;;;-148.88;100.00;62358.56;5094130;28;8787;-72
2023/07/06 07:25:38;;;;;;;;;4.50;4.00;;;;;-148.88;100.00;62358.56;5094778;28;8835;-82
2023/07/06 07:28:05;;;;;;;;;3.00;3.00;;;;;-148.88;100.00;62358.56;5094878;28;8809;-71
2023/07/06 07:30:31;;;;;;;;;4.00;4.00;;;;;-148.88;100.00;62358.56;5072429;28;8805;-70
2023/07/06 07:32:57;;;;;;;;;4.00;3.25;;;;;-148.88;100.00;62358.56;5094552;28;8826;-71
2023/07/06 07:35:23;;;;;;;;;5.00;3.00;;;;;-148.88;100.00;62358.56;5082507;28;8797;-72
2023/07/06 07:37:50;;;;;;;;;3.00;2.75;;;;;-148.88;100.00;62358.56;5095032;28;8931;-73
2023/07/06 07:40:18;;;;;;;;;4.25;2.50;;;;;-148.88;100.00;62358.56;5109071;28;8809;-75
2023/07/06 07:42:46;;;;;;;;;5.00;4.00;;;;;-148.88;100.00;62358.56;5094663;28;8795;-75
2023/07/06 07:45:13;;;;;;;;;3.00;3.00;;;;;-148.88;100.00;62358.56;5091526;28;8814;-72
2023/07/06 07:47:39;;;;;;;;;3.00;2.00;;;;;-148.88;100.00;62358.56;5094693;28;8809;-73
2023/07/06 07:50:06;;;;;;;;;4.00;3.75;;;;;-148.88;100.00;62358.56;5094419;28;9526;-70
2023/07/06 07:52:31;;;;;;;;;4.00;3.25;;;;;-148.88;100.00;62358.56;5096387;28;8867;-69
2023/07/06 07:54:56;;;;;;;;;6.25;3.50;;;;;-148.88;100.00;62358.56;5083205;28;8865;-68
2023/07/06 07:57:22;;;;;;;;;4.50;3.50;;;;;-148.88;100.00;62358.56;5077266;28;9161;-68
2023/07/06 07:59:50;;;;;;;;;3.25;3.00;;;;;-148.88;100.00;62358.56;5094173;28;8807;-69
2023/07/06 08:02:17;;;;;;;;;4.50;3.50;;;;;-148.88;100.00;62358.56;5078510;28;8798;-69
2023/07/06 08:04:43;;;;;;;;;4.00;3.25;;;;;-148.88;100.00;62358.56;5093334;28;8835;-68
2023/07/06 08:07:08;;;;;;;;;4.25;3.25;;;;;-148.88;100.00;62358.56;5093407;28;8830;-78
2023/07/06 08:09:34;;;;;;;;;4.50;4.00;;;;;-148.88;100.00;62358.56;5092647;28;8819;-72
2023/07/06 08:11:59;;;;;;;;;3.75;3.75;;;;;-148.88;100.00;62358.56;5096880;28;8808;-72
2023/07/06 08:14:37;;;;;;;;;4.75;3.75;;;;;-148.88;100.00;62358.56;5094279;28;8810;-71
2023/07/06 08:17:04;;;;;;;;;5.50;4.00;;;;;-148.88;100.00;62358.56;5091982;28;8787;-71
2023/07/06 08:19:30;;;;;;;;;5.50;4.50;;;;;-148.88;100.00;62358.56;5075774;28;8905;-72
2023/07/06 08:21:55;;;;;;;;;4.75;4.00;;;;;-148.88;100.00;62358.56;5095137;28;8767;-72
2023/07/06 08:24:21;;;;;;;;;4.00;4.00;;;;;-148.88;100.00;62358.56;5095140;28;9616;-73
2023/07/06 08:26:46;;;;;;;;;4.25;4.25;;;;;-148.88;100.00;62358.56;5088629;28;8817;-72
2023/07/06 08:29:12;;;;;;;;;7.25;5.00;;;;;-148.88;100.00;62358.56;5096155;28;8877;-73
2023/07/06 08:31:38;;;;;;;;;4.75;4.75;;;;;-148.88;100.00;62358.56;5093940;28;8838;-71
2023/07/06 08:34:03;;;;;;;;;5.50;4.00;;;;;-148.88;100.00;62358.56;5079157;28;8865;-71
2023/07/06 08:36:28;;;;;;;;;8.50;7.50;;;;;-148.88;100.00;62358.56;5096041;28;8920;-71
2023/07/06 08:38:57;;;;;;;;;5.75;5.00;;;;;-148.88;100.00;62358.56;5096244;28;9013;-69
2023/07/06 08:41:29;;;;;;;;;7.50;5.75;;;;;-148.88;100.00;62358.56;5097604;28;8787;-69
2023/07/06 08:43:55;;;;;;;;;5.00;4.50;;;;;-148.88;100.00;62358.56;5097357;28;8956;-72
2023/07/06 08:46:22;;;;;;;;;4.75;4.50;;;;;-148.88;100.00;62358.56;5096142;28;8905;-68
2023/07/06 08:48:47;;;;;;;;;6.75;6.00;;;;;-148.88;100.00;62358.56;5097460;28;8849;-70
2023/07/06 08:51:35;;;;;;;;;7.00;6.00;;;;;-148.88;100.00;62358.56;5095456;28;8831;-72
2023/07/06 08:54:05;;;;;;;;;7.25;5.75;;;;;-148.88;100.00;62358.56;5103611;28;8850;-74
2023/07/06 08:56:36;;;;;;;;;5.00;4.25;;;;;-148.88;100.00;62358.56;5097713;28;8825;-72
2023/07/06 08:59:07;;;;;;;;;4.00;4.00;;;;;-148.88;100.00;62358.56;5099814;28;8951;-73
2023/07/06 09:01:33;;;;;;;;;8.75;7.50;;;;;-148.88;100.00;62358.56;5093968;28;8806;-73
2023/07/06 09:04:12;;;;;;;;;4.50;4.00;;;;;-148.88;100.00;62358.56;5095401;28;8844;-72
2023/07/06 09:06:47;;;;;;;;;4.75;4.00;;;;;-148.88;100.00;62358.56;5095495;28;8913;-69
2023/07/06 09:09:12;;;;;;;;;5.00;5.00;;;;;-148.88;100.00;62358.56;5101254;28;8957;-71
2023/07/06 09:11:42;;;;;;;;;5.00;4.25;;;;;-148.88;100.00;62358.56;5106152;28;8795;-72
2023/07/06 09:14:10;;;;;;;;;4.75;4.25;;;;;-148.88;100.00;62358.56;5098718;28;9786;-72
2023/07/06 09:16:46;;;;;;;;;5.00;5.00;;;;;-148.88;100.00;62358.56;5097973;28;8803;-72
2023/07/06 09:19:14;;;;;;;;;8.75;5.00;;;;;-148.88;100.00;62358.56;5093129;28;8835;-73
2023/07/06 09:21:45;;;;;;;;;5.00;5.00;;;;;-148.88;100.00;62358.56;5105604;28;8802;-73
2023/07/06 09:24:11;;;;;;;;;8.75;7.00;;;;;-148.88;100.00;62358.56;5096969;28;8783;-73
2023/07/06 09:26:38;;;;;;;;;5.75;5.25;;;;;-148.88;100.00;62358.56;5098850;28;8867;-73
2023/07/06 09:29:25;;;;;;;;;5.00;5.00;;;;;-148.88;100.00;62358.56;5074610;28;8837;-73
2023/07/06 09:32:17;;;;;;;;;6.00;5.00;;;;;-148.88;100.00;62358.56;5094583;28;8872;-73
2023/07/06 09:34:45;;;;;;;;;8.75;6.00;;;;;-148.88;100.00;62358.56;5073801;28;8927;-73
2023/07/06 09:37:14;;;;;;;;;6.00;5.25;;;;;-148.88;100.00;62358.56;5097572;28;8875;-73
2023/07/06 09:39:41;;;;;;;;;7.00;6.00;;;;;-148.88;100.00;62358.56;5095504;28;8771;-72
2023/07/06 09:42:15;;;;;;;;;8.50;6.00;;;;;-148.88;100.00;62358.56;5079351;28;8826;-72
2023/07/06 09:44:41;;;;;;;;;5.50;5.00;;;;;-148.88;100.00;62358.56;5088892;28;8832;-72
2023/07/06 09:47:12;;;;;;;;;7.00;5.25;;;;;-148.88;100.00;62358.56;5096414;28;8799;-72
2023/07/06 09:49:47;;;;;;;;;7.50;5.50;;;;;-148.88;100.00;62358.56;5097207;28;8779;-72
2023/07/06 09:52:15;;;;;;;;;6.00;6.00;;;;;-148.88;100.00;62358.56;5112748;28;8733;-72
2023/07/06 09:55:19;;;;;;;;;5.75;5.25;;;;;-148.88;100.00;62358.56;5079054;28;9758;-72
2023/07/06 09:57:47;;;;;;;;;6.00;5.00;;;;;-148.88;100.00;62358.56;5083781;28;8946;-72
2023/07/06 10:00:17;;;;;;;;;6.75;6.75;;;;;-148.88;100.00;62358.56;5095632;28;8856;-72
2023/07/06 10:02:45;;;;;;;;;9.25;7.00;;;;;-148.88;100.00;62358.56;5097890;28;8795;-72
2023/07/06 10:05:35;;;;;;;;;6.00;6.00;;;;;-148.88;100.00;62358.56;5096185;28;8818;-72
2023/07/06 10:08:38;;;;;;;;;8.25;6.50;;;;;-148.88;100.00;62358.56;5107984;28;8834;-72
2023/07/06 10:11:12;;;;;;;;;7.25;7.00;;;;;-148.88;100.00;62358.56;5066785;28;8758;-72
2023/07/06 10:13:55;;;;;;;;;7.25;7.00;;;;;-148.88;100.00;62358.56;5096685;28;8783;-72
2023/07/06 10:16:43;;;;;;;;;7.25;4.75;;;;;-148.88;100.00;62358.56;5089135;28;8879;-72
2023/07/06 10:19:25;;;;;;;;;6.25;6.00;;;;;-148.88;100.00;62358.56;5099108;28;8791;-72
2023/07/06 10:22:12;;;;;;;;;11.00;10.25;;;;;-148.88;100.00;62358.56;5103514;28;8769;-72
2023/07/06 10:24:54;;;;;;;;;7.25;7.25;;;;;-148.88;100.00;62358.56;5083297;28;8759;-73
2023/07/06 10:27:28;;;;;;;;;5.25;5.25;;;;;-148.88;100.00;62358.56;5079102;28;8790;-73
2023/07/06 10:29:59;;;;;;;;;5.25;4.75;;;;;-148.88;100.00;62358.56;5074757;28;8815;-72
2023/07/06 10:32:30;;;;;;;;;7.25;6.25;;;;;-148.88;100.00;62358.56;5091206;28;8793;-73
2023/07/06 10:35:05;;;;;;;;;7.00;5.25;;;;;-148.88;100.00;62358.56;5102535;28;8829;-72
2023/07/06 10:37:34;;;;;;;;;6.00;6.00;;;;;-148.88;100.00;62358.56;5113205;28;8890;-72
2023/07/06 10:40:10;;;;;;;;;5.00;5.00;;;;;-148.88;100.00;62358.56;5081193;28;8803;-73
2023/07/06 10:42:41;;;;;;;;;0.00;0.00;;;;;-148.88;100.00;62358.56;5077693;28;8909;-72
2023/07/06 10:45:32;;;;;;;;;5.25;5.25;;;;;-148.88;100.00;62358.56;5077386;28;8799;-72
2023/07/06 10:48:10;;;;;;;;;6.25;5.25;;;;;-148.88;100.00;62358.56;5111374;28;8791;-72
2023/07/06 10:50:49;;;;;;;;;4.75;4.75;;;;;-148.88;100.00;62358.56;5092134;28;8906;-71
2023/07/06 10:53:25;;;;;;;;;6.75;5.50;;;;;-148.88;100.00;62358.56;5095894;28;8767;-65
2023/07/06 10:56:02;;;;;;;;;7.00;7.00;;;;;-148.88;100.00;62358.56;5094523;28;8917;-68
2023/07/06 10:58:34;;;;;;;;;5.75;5.50;;;;;-148.88;100.00;62358.56;5089543;28;8731;-69
2023/07/06 11:01:09;;;;;;;;;5.75;5.25;;;;;-148.88;100.00;62358.56;5075721;28;8811;-68
2023/07/06 11:03:34;;;;;;;;;6.75;6.25;;;;;-148.88;100.00;62358.56;5075194;28;9711;-68
2023/07/06 11:06:07;;;;;;;;;8.25;7.00;;;;;-148.88;100.00;62358.56;5099456;28;8836;-70
2023/07/06 11:09:02;;;;;;;;;6.00;5.75;;;;;-148.88;100.00;62358.56;5109971;28;8895;-69
2023/07/06 11:11:29;;;;;;;;;5.75;4.75;;;;;-148.88;100.00;62358.56;5094821;28;8787;-68
2023/07/06 11:13:54;;;;;;;;;4.25;4.25;;;;;-148.88;100.00;62358.56;5095318;28;9680;-67
2023/07/06 11:16:41;;;;;;;;;7.75;6.00;;;;;-148.88;100.00;62358.56;5094975;28;8858;-67
2023/07/06 11:19:21;;;;;;;;;5.00;5.00;;;;;-148.88;100.00;62358.56;5068948;28;8793;-68
2023/07/06 11:21:53;;;;;;;;;5.25;5.25;;;;;-148.88;100.00;62358.56;5093870;28;8895;-68
2023/07/06 11:24:23;;;;;;;;;8.00;6.00;;;;;-148.88;100.00;62358.56;5094130;28;8755;-72
2023/07/06 11:26:59;;;;;;;;;4.25;4.25;;;;;-148.88;100.00;62358.56;5094901;28;8740;-68